createdAt,value
2017-05-13T00:00:13.115Z,0
2017-05-13T00:01:28.740Z,0
2017-05-13T00:02:44.125Z,0
2017-05-13T00:03:59.110Z,0
2017-05-13T00:05:13.719Z,0
2017-05-13T00:06:29.117Z,0
2017-05-13T00:07:43.187Z,0
2017-05-13T00:08:58.557Z,0
2017-05-13T00:10:14.335Z,0
2017-05-13T00:11:28.470Z,0
2017-05-13T00:12:42.557Z,0
2017-05-13T00:13:56.675Z,0
2017-05-13T00:15:09.426Z,0
2017-05-13T00:16:24.962Z,0
2017-05-13T00:17:39.059Z,0
2017-05-13T00:18:54.445Z,0
2017-05-13T00:20:10.025Z,0
2017-05-13T00:21:25.608Z,0
2017-05-13T00:22:39.353Z,0
2017-05-13T00:23:54.728Z,0
2017-05-13T00:25:08.853Z,0
2017-05-13T00:26:23.122Z,0
2017-05-13T00:27:38.623Z,0
2017-05-13T00:28:54.009Z,0
2017-05-13T00:30:09.506Z,0
2017-05-13T00:31:25.066Z,0
2017-05-13T00:32:40.430Z,0
2017-05-13T00:33:55.769Z,0
2017-05-13T00:35:11.144Z,0
2017-05-13T00:36:25.390Z,0
2017-05-13T00:37:40.730Z,0
2017-05-13T00:38:56.147Z,0
2017-05-13T00:40:11.180Z,0
2017-05-13T00:41:26.858Z,0
2017-05-13T00:42:42.205Z,0
2017-05-13T00:43:57.640Z,0
2017-05-13T00:45:12.985Z,0
2017-05-13T00:46:27.238Z,0
2017-05-13T00:47:42.585Z,0
2017-05-13T00:48:58.001Z,0
2017-05-13T00:50:13.387Z,0
2017-05-13T00:51:28.972Z,0
2017-05-13T00:52:43.381Z,0
2017-05-13T00:53:57.292Z,0
2017-05-13T00:55:12.700Z,0
2017-05-13T00:56:24.571Z,0
2017-05-13T00:57:40.219Z,0
2017-05-13T00:58:54.391Z,0
2017-05-13T01:00:09.734Z,0
2017-05-13T01:01:25.533Z,0
2017-05-13T01:02:39.577Z,0
2017-05-13T01:03:53.609Z,0
2017-05-13T01:05:08.975Z,0
2017-05-13T01:06:24.527Z,0
2017-05-13T01:07:39.863Z,0
2017-05-13T01:08:52.640Z,0
2017-05-13T01:10:06.770Z,0
2017-05-13T01:11:22.112Z,0
2017-05-13T01:12:37.714Z,0
2017-05-13T01:13:53.100Z,0
2017-05-13T01:15:08.545Z,0
2017-05-13T01:16:22.642Z,0
2017-05-13T01:17:38.166Z,0
2017-05-13T01:18:53.733Z,0
2017-05-13T01:20:09.242Z,0
2017-05-13T01:21:24.584Z,0
2017-05-13T01:22:40.213Z,0
2017-05-13T01:23:53.026Z,0
2017-05-13T01:25:06.942Z,0
2017-05-13T01:26:22.401Z,0
2017-05-13T01:27:38.018Z,0
2017-05-13T01:28:52.078Z,0
2017-05-13T01:30:07.432Z,0
2017-05-13T01:31:22.877Z,0
2017-05-13T01:32:38.156Z,0
2017-05-13T01:33:53.505Z,0
2017-05-13T01:35:08.851Z,0
2017-05-13T01:36:24.190Z,0
2017-05-13T01:37:37.012Z,0
2017-05-13T01:38:51.172Z,0
2017-05-13T01:40:06.569Z,0
2017-05-13T01:41:20.629Z,0
2017-05-13T01:42:36.159Z,0
2017-05-13T01:43:51.639Z,0
2017-05-13T01:45:06.997Z,0
2017-05-13T01:46:19.779Z,0
2017-05-13T01:47:35.383Z,0
2017-05-13T01:48:49.437Z,0
2017-05-13T01:50:04.762Z,0
2017-05-13T01:51:20.152Z,0
2017-05-13T01:52:34.449Z,0
2017-05-13T01:53:48.597Z,0
2017-05-13T01:55:03.947Z,0
2017-05-13T01:56:18.244Z,0
2017-05-13T01:57:33.577Z,0
2017-05-13T01:58:49.449Z,0
2017-05-13T02:00:03.509Z,0
2017-05-13T02:01:18.866Z,0
2017-05-13T02:02:32.688Z,0
2017-05-13T02:03:48.350Z,0
2017-05-13T02:05:03.684Z,0
2017-05-13T02:06:17.753Z,0
2017-05-13T02:07:33.155Z,0
2017-05-13T02:08:48.804Z,0
2017-05-13T02:10:03.043Z,0
2017-05-13T02:11:16.032Z,0
2017-05-13T02:12:29.978Z,0
2017-05-13T02:13:44.232Z,0
2017-05-13T02:14:58.166Z,0
2017-05-13T02:16:10.791Z,0
2017-05-13T02:17:24.841Z,0
2017-05-13T02:18:40.281Z,0
2017-05-13T02:19:55.823Z,0
2017-05-13T02:21:10.025Z,0
2017-05-13T02:22:25.355Z,0
2017-05-13T02:23:40.689Z,0
2017-05-13T02:24:56.363Z,0
2017-05-13T02:26:10.423Z,0
2017-05-13T02:27:25.761Z,0
2017-05-13T02:28:38.416Z,0
2017-05-13T02:29:53.973Z,0
2017-05-13T02:31:09.060Z,0
2017-05-13T02:32:24.436Z,0
2017-05-13T02:33:38.471Z,0
2017-05-13T02:34:54.039Z,0
2017-05-13T02:36:09.370Z,0
2017-05-13T02:37:22.157Z,0
2017-05-13T02:38:37.529Z,0
2017-05-13T02:39:49.205Z,0
2017-05-13T02:41:03.279Z,4
2017-05-13T02:42:18.628Z,4
2017-05-13T02:43:31.383Z,0
2017-05-13T02:44:45.637Z,0
2017-05-13T02:45:59.641Z,4
2017-05-13T02:47:12.485Z,0
2017-05-13T02:48:28.102Z,4
2017-05-13T02:49:43.693Z,4
2017-05-13T02:50:57.811Z,8
2017-05-13T02:52:13.165Z,8
2017-05-13T02:53:58.082Z,8
2017-05-13T02:55:13.631Z,12
2017-05-13T02:56:28.963Z,8
2017-05-13T02:57:43.026Z,12
2017-05-13T02:58:57.130Z,12
2017-05-13T03:00:11.391Z,16
2017-05-13T03:01:25.442Z,20
2017-05-13T03:02:40.794Z,24
2017-05-13T03:03:54.740Z,28
2017-05-13T03:05:09.985Z,32
2017-05-13T03:06:25.390Z,40
2017-05-13T03:07:40.808Z,44
2017-05-13T03:08:55.898Z,56
2017-05-13T03:10:10.198Z,60
2017-05-13T03:11:22.817Z,72
2017-05-13T03:12:36.946Z,84
2017-05-13T03:13:52.296Z,100
2017-05-13T03:15:07.631Z,116
2017-05-13T03:16:21.942Z,136
2017-05-13T03:17:37.298Z,160
2017-05-13T03:18:52.733Z,180
2017-05-13T03:20:06.881Z,200
2017-05-13T03:21:22.477Z,224
2017-05-13T03:22:37.819Z,260
2017-05-13T03:23:53.294Z,300
2017-05-13T03:25:08.616Z,336
2017-05-13T03:26:24.257Z,372
2017-05-13T03:27:39.584Z,416
2017-05-13T03:28:55.116Z,464
2017-05-13T03:30:09.046Z,508
2017-05-13T03:31:23.282Z,552
2017-05-13T03:32:38.889Z,596
2017-05-13T03:33:54.246Z,652
2017-05-13T03:35:08.311Z,708
2017-05-13T03:36:22.182Z,772
2017-05-13T03:37:36.087Z,836
2017-05-13T03:38:50.203Z,904
2017-05-13T03:40:05.582Z,976
2017-05-13T03:41:21.144Z,1048
2017-05-13T03:42:33.781Z,1120
2017-05-13T03:43:47.892Z,1184
2017-05-13T03:45:03.221Z,1252
2017-05-13T03:46:18.788Z,1324
2017-05-13T03:47:32.983Z,1400
2017-05-13T03:48:48.345Z,1484
2017-05-13T03:50:03.939Z,1576
2017-05-13T03:51:19.505Z,1676
2017-05-13T03:52:34.841Z,1784
2017-05-13T03:53:48.925Z,1892
2017-05-13T03:55:04.312Z,1996
2017-05-13T03:56:18.281Z,2084
2017-05-13T03:57:32.748Z,2160
2017-05-13T03:58:46.805Z,2224
2017-05-13T04:00:02.245Z,2264
2017-05-13T04:01:17.569Z,2304
2017-05-13T04:02:33.199Z,2336
2017-05-13T04:03:48.530Z,2364
2017-05-13T04:05:03.855Z,2424
2017-05-13T04:06:19.228Z,2476
2017-05-13T04:07:33.372Z,2520
2017-05-13T04:08:47.428Z,2536
2017-05-13T04:10:02.794Z,2540
2017-05-13T04:11:16.847Z,2520
2017-05-13T04:12:32.382Z,2500
2017-05-13T04:13:45.148Z,2480
2017-05-13T04:14:59.262Z,2452
2017-05-13T04:16:14.597Z,2424
2017-05-13T04:17:30.211Z,2396
2017-05-13T04:18:44.373Z,2372
2017-05-13T04:19:55.712Z,2352
2017-05-13T04:21:11.075Z,2328
2017-05-13T04:22:25.135Z,2316
2017-05-13T04:23:39.467Z,2300
2017-05-13T04:24:53.511Z,2288
2017-05-13T04:26:07.434Z,2276
2017-05-13T04:27:21.391Z,2272
2017-05-13T04:28:36.970Z,2268
2017-05-13T04:29:51.048Z,2268
2017-05-13T04:31:06.440Z,2264
2017-05-13T04:32:20.353Z,2264
2017-05-13T04:33:35.921Z,2276
2017-05-13T04:34:50.096Z,2284
2017-05-13T04:36:05.428Z,2296
2017-05-13T04:37:20.790Z,2320
2017-05-13T04:38:35.039Z,2352
2017-05-13T04:39:50.427Z,2392
2017-05-13T04:41:04.747Z,2436
2017-05-13T04:42:20.083Z,2488
2017-05-13T04:43:34.206Z,2540
2017-05-13T04:44:49.593Z,2596
2017-05-13T04:46:05.015Z,2660
2017-05-13T04:47:19.078Z,2724
2017-05-13T04:48:34.627Z,2796
2017-05-13T04:49:49.986Z,2868
2017-05-13T04:51:05.375Z,2944
2017-05-13T04:52:20.761Z,3028
2017-05-13T04:53:36.353Z,3108
2017-05-13T04:54:51.675Z,3200
2017-05-13T04:56:04.298Z,3292
2017-05-13T04:57:19.661Z,3384
2017-05-13T04:58:33.780Z,3484
2017-05-13T04:59:49.581Z,3588
2017-05-13T05:01:04.924Z,3688
2017-05-13T05:02:18.899Z,3784
2017-05-13T05:03:30.291Z,3884
2017-05-13T05:04:45.854Z,3988
2017-05-13T05:06:01.191Z,4092
2017-05-13T05:07:16.550Z,4196
2017-05-13T05:08:30.658Z,4300
2017-05-13T05:09:44.771Z,4408
2017-05-13T05:11:00.136Z,4516
2017-05-13T05:12:12.960Z,4620
2017-05-13T05:13:27.008Z,4724
2017-05-13T05:14:42.777Z,4832
2017-05-13T05:15:58.130Z,4932
2017-05-13T05:17:44.174Z,5072
2017-05-13T05:18:58.298Z,5168
2017-05-13T05:20:13.532Z,5260
2017-05-13T05:21:27.575Z,5352
2017-05-13T05:22:41.285Z,5444
2017-05-13T05:23:56.716Z,5536
2017-05-13T05:25:12.375Z,5636
2017-05-13T05:26:27.729Z,5724
2017-05-13T05:27:43.130Z,5820
2017-05-13T05:28:57.293Z,5904
2017-05-13T05:30:11.425Z,5988
2017-05-13T05:31:26.773Z,6084
2017-05-13T05:32:40.816Z,6192
2017-05-13T05:34:25.721Z,6348
2017-05-13T05:35:41.315Z,6472
2017-05-13T05:36:56.802Z,6608
2017-05-13T05:38:10.855Z,6740
2017-05-13T05:39:24.906Z,6880
2017-05-13T05:40:39.151Z,7004
2017-05-13T05:41:54.531Z,7136
2017-05-13T05:43:08.226Z,7244
2017-05-13T05:44:23.728Z,7348
2017-05-13T05:45:39.278Z,7456
2017-05-13T05:46:54.650Z,7536
2017-05-13T05:48:10.061Z,7628
2017-05-13T05:49:25.420Z,7632
2017-05-13T05:50:41.214Z,7688
2017-05-13T05:51:55.326Z,7780
2017-05-13T05:53:10.682Z,7880
2017-05-13T05:54:26.006Z,7980
2017-05-13T05:55:40.346Z,8072
2017-05-13T05:56:54.399Z,8160
2017-05-13T05:58:09.811Z,8244
2017-05-13T05:59:25.135Z,8320
2017-05-13T06:00:39.196Z,8384
2017-05-13T06:01:54.890Z,8452
2017-05-13T06:03:10.246Z,8504
2017-05-13T06:04:24.297Z,8584
2017-05-13T06:05:38.349Z,8656
2017-05-13T06:06:53.934Z,8760
2017-05-13T06:08:09.346Z,8876
2017-05-13T06:09:24.754Z,8996
2017-05-13T06:10:40.358Z,9116
2017-05-13T06:11:55.929Z,9228
2017-05-13T06:13:09.902Z,9360
2017-05-13T06:14:23.805Z,9504
2017-05-13T06:15:37.962Z,9616
2017-05-13T06:16:52.288Z,9712
2017-05-13T06:18:07.718Z,9772
2017-05-13T06:19:23.075Z,9804
2017-05-13T06:20:37.135Z,9860
2017-05-13T06:21:51.301Z,9960
2017-05-13T06:23:05.545Z,10132
2017-05-13T06:24:20.560Z,10296
2017-05-13T06:25:35.894Z,10420
2017-05-13T06:26:50.138Z,10492
2017-05-13T06:28:02.902Z,10552
2017-05-13T06:29:15.701Z,10680
2017-05-13T06:30:31.087Z,10856
2017-05-13T06:31:46.504Z,11000
2017-05-13T06:33:32.762Z,11208
2017-05-13T06:34:48.106Z,11372
2017-05-13T06:36:00.857Z,11536
2017-05-13T06:37:14.945Z,11692
2017-05-13T06:38:29.268Z,11796
2017-05-13T06:39:43.415Z,11772
2017-05-13T06:40:58.779Z,11588
2017-05-13T06:42:14.196Z,11232
2017-05-13T06:43:28.471Z,10784
2017-05-13T06:44:43.831Z,10352
2017-05-13T06:45:57.927Z,9992
2017-05-13T06:47:13.328Z,9804
2017-05-13T06:48:28.900Z,9624
2017-05-13T06:49:44.467Z,9580
2017-05-13T06:50:58.537Z,9464
2017-05-13T06:52:12.689Z,9304
2017-05-13T06:53:27.047Z,9208
2017-05-13T06:54:41.101Z,9188
2017-05-13T06:55:56.552Z,9132
2017-05-13T06:57:11.894Z,9100
2017-05-13T06:58:27.476Z,9016
2017-05-13T06:59:41.772Z,9036
2017-05-13T07:00:57.146Z,9100
2017-05-13T07:02:11.211Z,9148
2017-05-13T07:03:25.140Z,9192
2017-05-13T07:04:39.393Z,9276
2017-05-13T07:05:54.775Z,9284
2017-05-13T07:07:10.117Z,9296
2017-05-13T07:08:22.799Z,9404
2017-05-13T07:09:38.394Z,9608
2017-05-13T07:10:52.314Z,9832
2017-05-13T07:12:07.327Z,9936
2017-05-13T07:13:21.390Z,10056
2017-05-13T07:14:35.722Z,10292
2017-05-13T07:15:51.066Z,10496
2017-05-13T07:17:06.401Z,10616
2017-05-13T07:18:20.450Z,10652
2017-05-13T07:19:36.107Z,10748
2017-05-13T07:20:51.107Z,10960
2017-05-13T07:22:05.291Z,11148
2017-05-13T07:23:20.635Z,11200
2017-05-13T07:24:36.181Z,11272
2017-05-13T07:25:51.790Z,11392
2017-05-13T07:27:07.124Z,11428
2017-05-13T07:28:22.508Z,11512
2017-05-13T07:29:36.943Z,11748
2017-05-13T07:30:52.538Z,12064
2017-05-13T07:32:07.906Z,12424
2017-05-13T07:33:23.245Z,12856
2017-05-13T07:34:38.798Z,13144
2017-05-13T07:35:51.440Z,13388
2017-05-13T07:37:05.423Z,13452
2017-05-13T07:38:19.341Z,13464
2017-05-13T07:39:34.930Z,13508
2017-05-13T07:40:49.004Z,13448
2017-05-13T07:42:04.391Z,13240
2017-05-13T07:43:19.768Z,13284
2017-05-13T07:44:35.466Z,13336
2017-05-13T07:45:50.808Z,13420
2017-05-13T07:47:05.108Z,13252
2017-05-13T07:48:20.501Z,12936
2017-05-13T07:49:36.269Z,12628
2017-05-13T07:50:51.642Z,12248
2017-05-13T07:52:05.332Z,11864
2017-05-13T07:53:20.686Z,11580
2017-05-13T07:54:36.064Z,11400
2017-05-13T07:55:49.208Z,11436
2017-05-13T07:57:04.696Z,11888
2017-05-13T07:58:17.479Z,12604
2017-05-13T07:59:31.428Z,13532
2017-05-13T08:00:47.014Z,14180
2017-05-13T08:02:01.076Z,14388
2017-05-13T08:03:12.427Z,14480
2017-05-13T08:04:25.215Z,14576
2017-05-13T08:05:41.068Z,14400
2017-05-13T08:06:56.419Z,14056
2017-05-13T08:08:11.768Z,13612
2017-05-13T08:09:26.101Z,13480
2017-05-13T08:10:41.754Z,13648
2017-05-13T08:11:57.353Z,13848
2017-05-13T08:13:11.454Z,14136
2017-05-13T08:14:26.807Z,14404
2017-05-13T08:15:42.647Z,14716
2017-05-13T08:16:58.021Z,14916
2017-05-13T08:18:13.371Z,15412
2017-05-13T08:19:29.075Z,16352
2017-05-13T08:20:44.720Z,17056
2017-05-13T08:22:00.070Z,17600
2017-05-13T08:23:14.117Z,18144
2017-05-13T08:24:28.186Z,18656
2017-05-13T08:25:42.706Z,19648
2017-05-13T08:26:58.087Z,21408
2017-05-13T08:28:12.418Z,22368
2017-05-13T08:29:26.532Z,22560
2017-05-13T08:30:41.892Z,23104
2017-05-13T08:31:57.503Z,23872
2017-05-13T08:33:43.833Z,25856
2017-05-13T08:34:59.245Z,24736
2017-05-13T08:36:12.230Z,40992
2017-05-13T08:37:27.871Z,29312
2017-05-13T08:38:43.218Z,25568
2017-05-13T08:39:57.296Z,24672
2017-05-13T08:41:13.088Z,24736
2017-05-13T08:42:25.748Z,23968
2017-05-13T08:43:41.123Z,27872
2017-05-13T08:44:56.476Z,26112
2017-05-13T08:46:10.608Z,24544
2017-05-13T08:47:25.950Z,24640
2017-05-13T08:48:38.818Z,27296
2017-05-13T08:49:52.930Z,25440
2017-05-13T08:51:08.516Z,24320
2017-05-13T08:52:24.143Z,22944
2017-05-13T08:53:39.511Z,22688
2017-05-13T08:54:54.882Z,22368
2017-05-13T08:56:10.582Z,22080
2017-05-13T08:57:24.533Z,20960
2017-05-13T08:58:39.885Z,26912
2017-05-13T08:59:55.275Z,30912
2017-05-13T09:01:11.113Z,40128
2017-05-13T09:02:26.579Z,27808
2017-05-13T09:03:40.560Z,35968
2017-05-13T09:04:56.027Z,90176
2017-05-13T09:06:11.683Z,90688
2017-05-13T09:07:27.049Z,106368
2017-05-13T09:08:41.371Z,97088
2017-05-13T09:09:55.512Z,90784
2017-05-13T09:11:09.628Z,96064
2017-05-13T09:12:24.127Z,87104
2017-05-13T09:13:39.521Z,67168
2017-05-13T09:14:52.352Z,78336
2017-05-13T09:16:07.755Z,72768
2017-05-13T09:17:23.369Z,63552
2017-05-13T09:18:38.766Z,89920
2017-05-13T09:19:52.848Z,89184
2017-05-13T09:21:06.780Z,86816
2017-05-13T09:22:21.096Z,93856
2017-05-13T09:23:36.468Z,84640
2017-05-13T09:24:49.303Z,87776
2017-05-13T09:26:04.669Z,88288
2017-05-13T09:27:18.868Z,76800
2017-05-13T09:28:32.959Z,75072
2017-05-13T09:29:48.337Z,84704
2017-05-13T09:31:02.400Z,98272
2017-05-13T09:32:16.530Z,98048
2017-05-13T09:33:31.912Z,95520
2017-05-13T09:34:44.778Z,94368
2017-05-13T09:35:57.429Z,105216
2017-05-13T09:37:12.852Z,103936
2017-05-13T09:38:28.692Z,86816
2017-05-13T09:39:42.781Z,80160
2017-05-13T09:40:56.883Z,84416
2017-05-13T09:42:10.971Z,95968
2017-05-13T09:43:25.255Z,95200
2017-05-13T09:44:39.374Z,92864
2017-05-13T09:45:53.469Z,104416
2017-05-13T09:47:07.798Z,86752
2017-05-13T09:48:23.388Z,62080
2017-05-13T09:49:38.792Z,83712
2017-05-13T09:50:54.440Z,95744
2017-05-13T09:52:10.067Z,81408
2017-05-13T09:53:24.352Z,86816
2017-05-13T09:54:39.423Z,104416
2017-05-13T09:55:55.171Z,104896
2017-05-13T09:57:09.139Z,106400
2017-05-13T09:58:24.808Z,108192
2017-05-13T09:59:40.213Z,118304
2017-05-13T10:00:55.499Z,116192
2017-05-13T10:02:10.888Z,80352
2017-05-13T10:03:26.470Z,103744
2017-05-13T10:04:40.570Z,110272
2017-05-13T10:05:56.265Z,98496
2017-05-13T10:07:10.592Z,70816
2017-05-13T10:08:25.959Z,106176
2017-05-13T10:09:41.640Z,110656
2017-05-13T10:10:57.008Z,31584
2017-05-13T10:12:10.005Z,102656
2017-05-13T10:13:25.396Z,33760
2017-05-13T10:14:41.126Z,38336
2017-05-13T10:15:56.503Z,32096
2017-05-13T10:17:10.248Z,111136
2017-05-13T10:18:25.634Z,109696
2017-05-13T10:19:41.253Z,116576
2017-05-13T10:20:56.651Z,122144
2017-05-13T10:22:10.775Z,106304
2017-05-13T10:23:24.747Z,101312
2017-05-13T10:24:39.072Z,118688
2017-05-13T10:25:53.215Z,119456
2017-05-13T10:27:08.905Z,102624
2017-05-13T10:28:24.319Z,98752
2017-05-13T10:29:39.911Z,107360
2017-05-13T10:30:53.860Z,114592
2017-05-13T10:32:09.515Z,117280
2017-05-13T10:33:24.955Z,66784
2017-05-13T10:34:40.561Z,96288
2017-05-13T10:35:51.969Z,42528
2017-05-13T10:37:07.382Z,19488
2017-05-13T10:38:22.772Z,19040
2017-05-13T10:39:38.018Z,38496
2017-05-13T10:40:51.971Z,114112
2017-05-13T10:42:07.598Z,122112
2017-05-13T10:43:21.755Z,138528
2017-05-13T10:44:37.639Z,115072
2017-05-13T10:45:53.282Z,98816
2017-05-13T10:47:08.683Z,118240
2017-05-13T10:48:22.637Z,112928
2017-05-13T10:49:38.272Z,82400
2017-05-13T10:50:53.733Z,67200
2017-05-13T10:52:07.835Z,26336
2017-05-13T10:53:23.317Z,49280
2017-05-13T10:54:37.295Z,77120
2017-05-13T10:55:53.100Z,92992
2017-05-13T10:57:07.323Z,115776
2017-05-13T10:58:22.732Z,109216
2017-05-13T10:59:38.090Z,87104
2017-05-13T11:00:52.451Z,77792
2017-05-13T11:02:06.655Z,83968
2017-05-13T11:03:22.071Z,76480
2017-05-13T11:04:36.172Z,35968
2017-05-13T11:05:51.810Z,115296
2017-05-13T11:07:07.311Z,96608
2017-05-13T11:08:21.387Z,103552
2017-05-13T11:09:36.879Z,116896
2017-05-13T11:10:51.184Z,117024
2017-05-13T11:12:06.616Z,96480
2017-05-13T11:13:20.327Z,87808
2017-05-13T11:14:36.271Z,105472
2017-05-13T11:15:50.688Z,130592
2017-05-13T11:17:06.342Z,122528
2017-05-13T11:18:21.746Z,114720
2017-05-13T11:19:34.800Z,112352
2017-05-13T11:20:50.496Z,113472
2017-05-13T11:22:05.908Z,106528
2017-05-13T11:23:21.324Z,89344
2017-05-13T11:24:34.018Z,101600
2017-05-13T11:25:48.299Z,131232
2017-05-13T11:27:03.677Z,118336
2017-05-13T11:28:17.645Z,101696
2017-05-13T11:29:32.955Z,109184
2017-05-13T11:30:44.131Z,59680
2017-05-13T11:31:59.768Z,129216
2017-05-13T11:33:13.762Z,135232
2017-05-13T11:34:29.163Z,36128
2017-05-13T11:35:44.536Z,110592
2017-05-13T11:36:58.896Z,140128
2017-05-13T11:38:13.154Z,139584
2017-05-13T11:39:28.526Z,89248
2017-05-13T11:40:44.178Z,72640
2017-05-13T11:41:59.834Z,73312
2017-05-13T11:43:15.277Z,75648
2017-05-13T11:44:28.203Z,62560
2017-05-13T11:45:43.661Z,62304
2017-05-13T11:46:59.347Z,58752
2017-05-13T11:48:14.720Z,45376
2017-05-13T11:49:30.144Z,41152
2017-05-13T11:50:44.261Z,40704
2017-05-13T11:51:59.910Z,30464
2017-05-13T11:53:15.323Z,25216
2017-05-13T11:54:30.702Z,24576
2017-05-13T11:55:46.159Z,24256
2017-05-13T11:57:00.529Z,24320
2017-05-13T11:58:14.649Z,24768
2017-05-13T11:59:30.016Z,24896
2017-05-13T12:00:44.147Z,28032
2017-05-13T12:01:59.708Z,27936
2017-05-13T12:03:15.192Z,26048
2017-05-13T12:04:30.300Z,26944
2017-05-13T12:05:44.518Z,26528
2017-05-13T12:07:00.126Z,24832
2017-05-13T12:08:14.268Z,22656
2017-05-13T12:09:29.687Z,21536
2017-05-13T12:10:44.689Z,20640
2017-05-13T12:12:00.038Z,19872
2017-05-13T12:13:15.978Z,19584
2017-05-13T12:14:31.372Z,19392
2017-05-13T12:15:47.086Z,20352
2017-05-13T12:17:02.438Z,19264
2017-05-13T12:18:18.094Z,17984
2017-05-13T12:19:33.495Z,17248
2017-05-13T12:20:47.564Z,16960
2017-05-13T12:22:02.945Z,16544
2017-05-13T12:23:18.775Z,16512
2017-05-13T12:24:31.256Z,16800
2017-05-13T12:25:46.244Z,17184
2017-05-13T12:27:01.762Z,17536
2017-05-13T12:28:17.393Z,17056
2017-05-13T12:29:32.831Z,16576
2017-05-13T12:30:48.449Z,16096
2017-05-13T12:32:03.804Z,15552
2017-05-13T12:33:19.462Z,14784
2017-05-13T12:34:33.624Z,14208
2017-05-13T12:35:48.969Z,13268
2017-05-13T12:37:04.217Z,12216
2017-05-13T12:38:18.636Z,11564
2017-05-13T12:39:34.080Z,11580
2017-05-13T12:40:49.438Z,12036
2017-05-13T12:42:03.507Z,12516
2017-05-13T12:43:19.121Z,12676
2017-05-13T12:44:34.491Z,12820
2017-05-13T12:45:49.903Z,12952
2017-05-13T12:47:05.358Z,12936
2017-05-13T12:48:20.986Z,12856
2017-05-13T12:49:36.425Z,12768
2017-05-13T12:50:49.206Z,12676
2017-05-13T12:52:03.158Z,12584
2017-05-13T12:53:18.772Z,12556
2017-05-13T12:54:34.247Z,12644
2017-05-13T12:55:49.627Z,12840
2017-05-13T12:57:03.729Z,12980
2017-05-13T12:58:19.316Z,13080
2017-05-13T13:00:05.602Z,13432
2017-05-13T13:01:20.587Z,13848
2017-05-13T13:02:36.209Z,14520
2017-05-13T13:03:50.684Z,15488
2017-05-13T13:05:06.027Z,16480
2017-05-13T13:06:21.035Z,18944
2017-05-13T13:07:36.620Z,21664
2017-05-13T13:08:51.027Z,23776
2017-05-13T13:10:06.381Z,26912
2017-05-13T13:11:21.763Z,27680
2017-05-13T13:12:34.550Z,27808
2017-05-13T13:13:50.130Z,30400
2017-05-13T13:15:05.472Z,31584
2017-05-13T13:16:19.542Z,29472
2017-05-13T13:17:34.913Z,29472
2017-05-13T13:18:50.459Z,30496
2017-05-13T13:20:01.992Z,30816
2017-05-13T13:21:17.391Z,31776
2017-05-13T13:22:32.781Z,37248
2017-05-13T13:23:48.384Z,46784
2017-05-13T13:25:03.880Z,46528
2017-05-13T13:26:50.143Z,43264
2017-05-13T13:28:05.508Z,64416
2017-05-13T13:29:19.827Z,75936
2017-05-13T13:30:35.215Z,79200
2017-05-13T13:31:50.634Z,68160
2017-05-13T13:33:06.000Z,66464
2017-05-13T13:34:21.825Z,55296
2017-05-13T13:35:37.193Z,56000
2017-05-13T13:36:51.283Z,50240
2017-05-13T13:38:05.226Z,49440
2017-05-13T13:39:19.484Z,45632
2017-05-13T13:40:33.594Z,39488
2017-05-13T13:41:48.998Z,32128
2017-05-13T13:43:04.381Z,28448
2017-05-13T13:44:19.989Z,31648
2017-05-13T13:45:34.223Z,46368
2017-05-13T13:46:49.651Z,51008
2017-05-13T13:48:05.274Z,47040
2017-05-13T13:49:19.539Z,38176
2017-05-13T13:50:34.902Z,51040
2017-05-13T13:51:50.392Z,75776
2017-05-13T13:53:04.793Z,75776
2017-05-13T13:54:20.214Z,70592
2017-05-13T13:55:34.170Z,66912
2017-05-13T13:56:49.577Z,74912
2017-05-13T13:58:05.012Z,89056
2017-05-13T13:59:19.371Z,90432
2017-05-13T14:00:34.751Z,78336
2017-05-13T14:01:50.126Z,68832
2017-05-13T14:03:04.229Z,71136
2017-05-13T14:04:19.802Z,75552
2017-05-13T14:05:35.166Z,74816
2017-05-13T14:06:50.589Z,53536
2017-05-13T14:08:04.711Z,52768
2017-05-13T14:09:18.807Z,55808
2017-05-13T14:10:34.451Z,26144
2017-05-13T14:11:48.415Z,21408
2017-05-13T14:13:02.754Z,17568
2017-05-13T14:14:18.137Z,16832
2017-05-13T14:15:33.783Z,17760
2017-05-13T14:16:47.869Z,17856
2017-05-13T14:18:03.232Z,18240
2017-05-13T14:19:15.758Z,18976
2017-05-13T14:20:31.317Z,20576
2017-05-13T14:21:46.742Z,27104
2017-05-13T14:23:00.701Z,65920
2017-05-13T14:24:16.081Z,43424
2017-05-13T14:25:31.671Z,41536
2017-05-13T14:26:45.625Z,63456
2017-05-13T14:28:00.992Z,51616
2017-05-13T14:29:16.434Z,45344
2017-05-13T14:30:32.044Z,31264
2017-05-13T14:31:47.413Z,41632
2017-05-13T14:33:02.780Z,83360
2017-05-13T14:34:16.831Z,73824
2017-05-13T14:35:31.001Z,66752
2017-05-13T14:36:46.357Z,54624
2017-05-13T14:38:01.798Z,57728
2017-05-13T14:39:17.168Z,49152
2017-05-13T14:40:31.535Z,39712
2017-05-13T14:41:47.133Z,35104
2017-05-13T14:42:59.816Z,14612
2017-05-13T14:44:15.188Z,25216
2017-05-13T14:45:29.381Z,26464
2017-05-13T14:46:45.009Z,19648
2017-05-13T14:48:00.362Z,13784
2017-05-13T14:49:15.720Z,13644
2017-05-13T14:50:30.128Z,13036
2017-05-13T14:51:44.256Z,11788
2017-05-13T14:52:58.355Z,17856
2017-05-13T14:54:13.743Z,11612
2017-05-13T14:55:29.098Z,12012
2017-05-13T14:56:44.668Z,12740
2017-05-13T14:58:00.057Z,14412
2017-05-13T14:59:12.868Z,24736
2017-05-13T15:00:28.268Z,23104
2017-05-13T15:01:43.878Z,28640
2017-05-13T15:02:58.209Z,25792
2017-05-13T15:04:13.566Z,25120
2017-05-13T15:05:28.932Z,32288
2017-05-13T15:06:44.513Z,32960
2017-05-13T15:07:58.607Z,33152
2017-05-13T15:09:13.992Z,33184
2017-05-13T15:10:29.340Z,34016
2017-05-13T15:11:44.943Z,23392
2017-05-13T15:13:00.294Z,28736
2017-05-13T15:14:15.877Z,21120
2017-05-13T15:15:28.542Z,17696
2017-05-13T15:16:44.185Z,17152
2017-05-13T15:17:59.523Z,18080
2017-05-13T15:19:13.682Z,19680
2017-05-13T15:20:29.082Z,19840
2017-05-13T15:21:44.764Z,20384
2017-05-13T15:22:58.833Z,21408
2017-05-13T15:24:14.242Z,20896
2017-05-13T15:25:26.968Z,20704
2017-05-13T15:26:42.518Z,19776
2017-05-13T15:27:57.873Z,18336
2017-05-13T15:29:13.231Z,16448
2017-05-13T15:30:27.342Z,14436
2017-05-13T15:31:43.047Z,13432
2017-05-13T15:32:57.129Z,13032
2017-05-13T15:34:12.505Z,12744
2017-05-13T15:35:27.915Z,12872
2017-05-13T15:36:43.473Z,13504
2017-05-13T15:37:59.089Z,13940
2017-05-13T15:39:14.446Z,14472
2017-05-13T15:40:28.439Z,14856
2017-05-13T15:41:44.361Z,14516
2017-05-13T15:42:59.704Z,14588
2017-05-13T15:44:15.070Z,14488
2017-05-13T15:45:30.473Z,14404
2017-05-13T15:46:46.094Z,14108
2017-05-13T15:48:00.180Z,13388
2017-05-13T15:49:15.814Z,12768
2017-05-13T15:50:29.776Z,12200
2017-05-13T15:51:45.374Z,11728
2017-05-13T15:53:00.425Z,11424
2017-05-13T15:54:16.034Z,11540
2017-05-13T15:55:31.405Z,11672
2017-05-13T15:56:47.055Z,11980
2017-05-13T15:58:01.166Z,12448
2017-05-13T15:59:16.537Z,12912
2017-05-13T16:00:31.904Z,12324
2017-05-13T16:01:47.629Z,12932
2017-05-13T16:03:03.008Z,12712
2017-05-13T16:04:18.424Z,12236
2017-05-13T16:05:32.509Z,11816
2017-05-13T16:06:47.596Z,11328
2017-05-13T16:08:03.376Z,10820
2017-05-13T16:09:17.438Z,10644
2017-05-13T16:10:31.547Z,11044
2017-05-13T16:11:46.928Z,11184
2017-05-13T16:13:02.552Z,11472
2017-05-13T16:14:17.909Z,11508
2017-05-13T16:15:33.378Z,11268
2017-05-13T16:16:48.724Z,10904
2017-05-13T16:18:01.655Z,10852
2017-05-13T16:19:17.145Z,11000
2017-05-13T16:20:31.199Z,10936
2017-05-13T16:21:45.275Z,10532
2017-05-13T16:22:59.585Z,9712
2017-05-13T16:24:14.932Z,8660
2017-05-13T16:25:30.321Z,7708
2017-05-13T16:26:44.377Z,6864
2017-05-13T16:27:58.631Z,6236
2017-05-13T16:29:14.310Z,5492
2017-05-13T16:30:29.720Z,4620
2017-05-13T16:31:45.091Z,3808
2017-05-13T16:33:00.663Z,2756
2017-05-13T16:34:16.042Z,2204
2017-05-13T16:35:31.652Z,2212
2017-05-13T16:36:47.031Z,2668
2017-05-13T16:37:58.582Z,3396